createdAt,value
2019-02-07T00:02:11.886Z,28.97
2019-02-07T00:04:41.984Z,34.60
2019-02-07T00:07:12.193Z,32.23
2019-02-07T00:09:42.104Z,32.33
2019-02-07T00:12:12.314Z,32.87
2019-02-07T00:14:42.524Z,30.43
2019-02-07T00:17:12.632Z,31.37
2019-02-07T00:19:42.644Z,28.77
2019-02-07T00:22:12.853Z,27.73
2019-02-07T00:24:43.324Z,26.63
2019-02-07T00:27:13.661Z,29.23
2019-02-07T00:29:43.868Z,27.87
2019-02-07T00:32:13.979Z,26.63
2019-02-07T00:35:21.151Z,30.53
2019-02-07T00:37:51.067Z,31.67
2019-02-07T00:40:22.356Z,26.07
2019-02-07T00:42:53.327Z,31.03
2019-02-07T00:45:23.262Z,30.37
2019-02-07T00:47:53.326Z,26.93
2019-02-07T00:50:23.384Z,26.63
2019-02-07T00:53:23.475Z,26.80
2019-02-07T00:55:53.688Z,27.17
2019-02-07T00:58:23.949Z,28.97
2019-02-07T01:00:54.003Z,29.60
2019-02-07T01:03:24.670Z,32.20
2019-02-07T01:05:54.812Z,36.63
2019-02-07T01:08:25.027Z,34.33
2019-02-07T01:10:55.523Z,29.20
2019-02-07T01:13:25.932Z,32.57
2019-02-07T01:15:55.842Z,34.70
2019-02-07T01:18:25.755Z,36.17
2019-02-07T01:20:55.673Z,36.90
2019-02-07T01:23:25.781Z,32.23
2019-02-07T01:25:55.691Z,34.17
2019-02-07T01:28:26.000Z,33.30
2019-02-07T01:30:56.011Z,31.87
2019-02-07T01:33:25.923Z,30.83
2019-02-07T01:35:55.840Z,34.43
2019-02-07T01:38:25.750Z,35.50
2019-02-07T01:40:56.155Z,40.20
2019-02-07T01:43:26.169Z,35.13
2019-02-07T01:45:56.379Z,35.63
2019-02-07T01:48:26.748Z,29.43
2019-02-07T01:50:56.792Z,29.60
2019-02-07T01:53:26.708Z,30.00
2019-02-07T01:55:56.621Z,32.77
2019-02-07T01:58:26.539Z,30.07
2019-02-07T02:00:57.551Z,31.63
2019-02-07T02:03:27.834Z,31.23
2019-02-07T02:05:57.749Z,30.27
2019-02-07T02:08:27.759Z,30.73
2019-02-07T02:10:57.967Z,28.93
2019-02-07T02:13:27.886Z,29.30
2019-02-07T02:15:57.990Z,35.37
2019-02-07T02:18:27.906Z,29.97
2019-02-07T02:20:58.212Z,32.60
2019-02-07T02:23:28.127Z,33.77
2019-02-07T02:25:58.335Z,32.20
2019-02-07T02:28:29.156Z,35.13
2019-02-07T02:30:59.240Z,34.37
2019-02-07T02:33:29.255Z,28.57
2019-02-07T02:35:59.552Z,29.53
2019-02-07T02:38:29.473Z,31.67
2019-02-07T02:41:00.177Z,26.03
2019-02-07T02:43:30.087Z,31.47
2019-02-07T02:46:00.001Z,37.57
2019-02-07T02:48:30.216Z,33.83
2019-02-07T02:51:00.322Z,29.57
2019-02-07T02:53:30.548Z,31.03
2019-02-07T02:56:00.540Z,29.43
2019-02-07T02:58:30.459Z,30.00
2019-02-07T03:01:21.207Z,26.53
2019-02-07T03:03:52.753Z,25.77
2019-02-07T03:06:24.770Z,26.63
2019-02-07T03:09:08.644Z,27.20
2019-02-07T03:11:40.333Z,23.83
2019-02-07T03:14:12.110Z,26.23
2019-02-07T03:16:46.935Z,24.17
2019-02-07T03:19:24.518Z,25.47
2019-02-07T03:21:55.892Z,25.17
2019-02-07T03:24:27.269Z,23.10
2019-02-07T03:26:58.639Z,22.87
2019-02-07T03:29:42.159Z,27.10
2019-02-07T03:32:22.789Z,27.90
2019-02-07T03:34:57.418Z,26.97
2019-02-07T03:37:41.713Z,26.43
2019-02-07T03:40:32.639Z,21.50
2019-02-07T03:43:20.637Z,20.53
2019-02-07T03:46:08.934Z,21.87
2019-02-07T03:48:49.270Z,20.00
2019-02-07T03:51:23.338Z,18.70
2019-02-07T03:54:07.186Z,18.40
2019-02-07T03:56:56.955Z,18.10
2019-02-07T03:59:44.661Z,18.20
2019-02-07T04:02:22.340Z,17.87
2019-02-07T04:05:03.881Z,20.53
2019-02-07T04:07:47.824Z,21.40
2019-02-07T04:10:19.286Z,21.93
2019-02-07T04:12:53.745Z,19.90
2019-02-07T04:15:41.452Z,21.47
2019-02-07T04:18:21.884Z,21.70
2019-02-07T04:21:10.278Z,20.67
2019-02-07T04:23:41.765Z,16.60
2019-02-07T04:26:29.383Z,15.60
2019-02-07T04:29:17.865Z,16.33
2019-02-07T04:31:58.299Z,15.23
2019-02-07T04:34:45.909Z,16.00
2019-02-07T04:37:20.243Z,17.20
2019-02-07T04:40:03.921Z,15.50
2019-02-07T04:42:44.550Z,17.60
2019-02-07T04:45:19.181Z,17.67
2019-02-07T04:47:56.663Z,19.67
2019-02-07T04:50:34.244Z,17.87
2019-02-07T04:53:06.422Z,17.37
2019-02-07T04:55:40.954Z,16.07
2019-02-07T04:58:28.855Z,16.40
2019-02-07T05:01:16.659Z,16.23
2019-02-07T05:04:06.628Z,16.90
2019-02-07T05:06:44.604Z,20.57
2019-02-07T05:09:31.326Z,20.50
2019-02-07T05:12:05.764Z,18.87
2019-02-07T05:14:37.132Z,17.83
2019-02-07T05:17:08.496Z,18.83
2019-02-07T05:19:58.114Z,19.17
2019-02-07T05:22:35.693Z,17.73
2019-02-07T05:25:10.142Z,17.93
2019-02-07T05:27:53.904Z,17.70
2019-02-07T05:30:31.288Z,32.30
2019-02-07T05:33:02.662Z,26.10
2019-02-07T05:35:52.349Z,22.33
2019-02-07T05:38:23.834Z,20.73
2019-02-07T05:40:58.375Z,20.10
2019-02-07T05:43:48.256Z,19.37
2019-02-07T05:46:25.326Z,19.47
2019-02-07T05:49:02.445Z,21.37
2019-02-07T05:51:46.488Z,22.70
2019-02-07T05:54:30.456Z,25.30
2019-02-07T05:57:07.941Z,24.13
2019-02-07T05:59:54.468Z,20.33
2019-02-07T06:02:28.807Z,18.70
2019-02-07T06:05:09.045Z,19.63
2019-02-07T06:07:49.873Z,20.33
2019-02-07T06:10:37.179Z,25.57
2019-02-07T06:13:20.561Z,23.63
2019-02-07T06:16:01.599Z,26.17
2019-02-07T06:18:32.950Z,28.10
2019-02-07T06:21:07.502Z,29.00
2019-02-07T06:23:42.045Z,30.37
2019-02-07T06:26:13.722Z,30.40
2019-02-07T06:28:45.207Z,22.67
2019-02-07T06:31:22.866Z,25.20
2019-02-07T06:34:09.721Z,21.87
2019-02-07T06:36:44.044Z,22.43
2019-02-07T06:39:28.253Z,20.93
2019-02-07T06:42:07.858Z,19.67
2019-02-07T06:44:48.093Z,19.87
2019-02-07T06:47:28.725Z,24.27
2019-02-07T06:50:03.747Z,23.13
2019-02-07T06:52:52.242Z,25.13
2019-02-07T06:55:26.872Z,27.23
2019-02-07T06:57:58.386Z,33.13
2019-02-07T07:00:44.886Z,37.37
2019-02-07T07:03:16.372Z,39.37
2019-02-07T07:05:51.793Z,37.20
2019-02-07T07:08:41.466Z,38.40
2019-02-07T07:11:15.704Z,34.83
2019-02-07T07:13:47.188Z,36.13
2019-02-07T07:16:25.167Z,35.43
2019-02-07T07:19:03.054Z,36.93
2019-02-07T07:21:41.212Z,34.00
2019-02-07T07:24:25.968Z,31.97
2019-02-07T07:27:13.771Z,29.93
2019-02-07T07:29:48.210Z,27.63
2019-02-07T07:32:22.460Z,27.33
2019-02-07T07:34:56.999Z,25.60
2019-02-07T07:37:39.202Z,25.87
2019-02-07T07:40:14.283Z,25.83
2019-02-07T07:42:51.492Z,25.23
2019-02-07T07:45:23.078Z,25.60
2019-02-07T07:48:00.860Z,25.73
2019-02-07T07:50:32.636Z,26.07
2019-02-07T07:53:16.510Z,28.67
2019-02-07T07:56:00.292Z,28.57
2019-02-07T07:58:38.063Z,28.50
2019-02-07T08:01:25.965Z,27.07
2019-02-07T08:03:57.453Z,27.10
2019-02-07T08:06:37.600Z,27.47
2019-02-07T08:09:15.715Z,24.23
2019-02-07T08:11:47.446Z,26.13
2019-02-07T08:14:25.025Z,25.50
2019-02-07T08:17:11.943Z,26.30
2019-02-07T08:19:49.819Z,24.50
2019-02-07T08:22:21.308Z,24.30
2019-02-07T08:24:58.986Z,22.37
2019-02-07T08:27:30.378Z,23.90
2019-02-07T08:30:08.447Z,27.10
2019-02-07T08:32:55.661Z,28.23
2019-02-07T08:35:36.192Z,41.27
2019-02-07T08:38:07.782Z,32.33
2019-02-07T08:40:42.018Z,26.20
2019-02-07T08:43:15.961Z,23.63
2019-02-07T08:46:05.337Z,28.10
2019-02-07T08:48:52.949Z,26.80
2019-02-07T08:51:39.570Z,25.17
2019-02-07T08:54:27.377Z,25.47
2019-02-07T08:57:01.911Z,25.53
2019-02-07T08:59:33.607Z,24.80
2019-02-07T09:02:23.363Z,25.43
2019-02-07T09:05:01.148Z,23.60
2019-02-07T09:07:47.964Z,25.93
2019-02-07T09:10:37.733Z,25.23
2019-02-07T09:13:21.409Z,27.67
2019-02-07T09:16:09.313Z,25.93
2019-02-07T09:18:52.791Z,26.13
2019-02-07T09:21:24.163Z,26.77
2019-02-07T09:24:05.595Z,27.70
2019-02-07T09:27:04.411Z,26.30
2019-02-07T09:29:45.137Z,26.30
2019-02-07T09:32:16.715Z,25.63
2019-02-07T09:34:48.698Z,29.40
2019-02-07T09:37:23.657Z,28.00
2019-02-07T09:40:13.300Z,26.83
2019-02-07T09:42:44.884Z,30.77
2019-02-07T09:45:28.755Z,30.10
2019-02-07T09:48:00.701Z,29.03
2019-02-07T09:50:35.366Z,29.33
2019-02-07T09:53:07.246Z,24.80
2019-02-07T09:55:54.951Z,25.17
2019-02-07T09:58:32.236Z,22.73
2019-02-07T10:01:22.106Z,23.43
2019-02-07T10:03:53.702Z,29.90
2019-02-07T10:06:28.618Z,27.03
2019-02-07T10:08:59.981Z,24.40
2019-02-07T10:11:46.630Z,25.67
2019-02-07T10:14:18.120Z,24.07
2019-02-07T10:17:04.840Z,30.10
2019-02-07T10:19:39.375Z,27.47
2019-02-07T10:22:10.866Z,27.43
2019-02-07T10:24:51.323Z,22.90
2019-02-07T10:27:35.120Z,23.70
2019-02-07T10:30:09.700Z,23.67
2019-02-07T10:32:41.186Z,24.20
2019-02-07T10:35:28.597Z,24.50
2019-02-07T10:38:05.885Z,24.93
2019-02-07T10:40:53.787Z,23.23
2019-02-07T10:43:34.514Z,22.50
2019-02-07T10:46:12.391Z,23.77
2019-02-07T10:48:44.733Z,22.47
2019-02-07T10:51:28.537Z,23.47
2019-02-07T10:54:15.458Z,23.27
2019-02-07T10:57:03.412Z,24.33
2019-02-07T10:59:47.231Z,23.23
2019-02-07T11:02:34.544Z,23.70
2019-02-07T11:05:21.270Z,23.50
2019-02-07T11:07:59.144Z,21.77
2019-02-07T11:10:39.587Z,21.13
2019-02-07T11:13:20.212Z,22.40
2019-02-07T11:16:07.812Z,20.67
2019-02-07T11:18:55.888Z,20.93
2019-02-07T11:21:30.152Z,23.70
2019-02-07T11:24:01.532Z,24.93
2019-02-07T11:26:49.541Z,20.43
2019-02-07T11:29:31.741Z,18.60
2019-02-07T11:32:03.786Z,15.03
2019-02-07T11:34:38.077Z,13.83
2019-02-07T11:37:12.514Z,13.60
2019-02-07T11:39:47.222Z,14.50
2019-02-07T11:42:34.931Z,12.10
2019-02-07T11:45:26.473Z,11.77
2019-02-07T11:48:00.709Z,11.47
2019-02-07T11:50:41.239Z,11.23
2019-02-07T11:53:12.628Z,11.37
2019-02-07T11:55:59.350Z,10.27
2019-02-07T11:58:33.880Z,10.23
2019-02-07T12:01:06.256Z,10.43
2019-02-07T12:03:50.030Z,11.80
2019-02-07T12:06:34.000Z,11.40
2019-02-07T12:09:23.379Z,10.03
2019-02-07T12:11:59.387Z,11.47
2019-02-07T12:14:31.039Z,9.67
2019-02-07T12:17:02.557Z,9.10
2019-02-07T12:19:49.081Z,8.97
2019-02-07T12:22:23.714Z,7.30
2019-02-07T12:24:55.594Z,6.50
2019-02-07T12:27:43.203Z,6.27
2019-02-07T12:30:19.334Z,5.60
2019-02-07T12:32:50.891Z,7.07
2019-02-07T12:35:34.961Z,6.83
2019-02-07T12:38:09.986Z,5.30
2019-02-07T12:40:54.054Z,5.30
2019-02-07T12:43:34.586Z,5.60
2019-02-07T12:46:06.877Z,6.50
2019-02-07T12:48:47.439Z,6.87
2019-02-07T12:51:21.920Z,5.67
2019-02-07T12:53:53.997Z,5.33
2019-02-07T12:56:28.251Z,5.17
2019-02-07T12:59:11.815Z,4.03
2019-02-07T13:01:49.313Z,4.43
2019-02-07T13:04:26.977Z,4.10
2019-02-07T13:07:06.755Z,4.87
2019-02-07T13:09:53.681Z,4.40
2019-02-07T13:12:31.816Z,4.60
2019-02-07T13:15:08.881Z,4.23
2019-02-07T13:17:55.544Z,4.20
2019-02-07T13:20:27.229Z,4.50
2019-02-07T13:23:05.007Z,4.33
2019-02-07T13:25:42.567Z,4.13
2019-02-07T13:28:17.905Z,4.73
2019-02-07T13:30:49.400Z,4.03
2019-02-07T13:33:23.713Z,3.83
2019-02-07T13:36:05.713Z,4.30
2019-02-07T13:38:50.085Z,4.67
2019-02-07T13:41:37.785Z,5.13
2019-02-07T13:44:12.324Z,4.10
2019-02-07T13:47:02.188Z,4.10
2019-02-07T13:49:52.125Z,4.70
2019-02-07T13:52:19.415Z,4.00
2019-02-07T13:55:06.207Z,5.13
2019-02-07T13:57:56.794Z,5.20
2019-02-07T14:00:37.620Z,4.53
2019-02-07T14:03:09.695Z,4.10
2019-02-07T14:05:50.127Z,3.60
2019-02-07T14:08:38.779Z,3.30
2019-02-07T14:11:10.695Z,3.30
2019-02-07T14:13:42.063Z,3.07
2019-02-07T14:16:22.811Z,3.80
2019-02-07T14:18:57.541Z,3.50
2019-02-07T14:21:41.132Z,3.43
2019-02-07T14:24:15.751Z,3.10
2019-02-07T14:27:03.949Z,3.70
2019-02-07T14:29:35.319Z,3.50
2019-02-07T14:32:22.453Z,3.47
2019-02-07T14:35:09.088Z,3.33
2019-02-07T14:37:40.630Z,2.70
2019-02-07T14:40:30.631Z,9.27
2019-02-07T14:43:02.215Z,2.33
2019-02-07T14:45:45.792Z,1.67
2019-02-07T14:48:25.734Z,1.90
2019-02-07T14:50:56.536Z,2.40
2019-02-07T14:53:27.403Z,2.27
2019-02-07T14:55:57.545Z,2.30
2019-02-07T14:58:28.238Z,2.60
2019-02-07T15:00:58.646Z,3.17
2019-02-07T15:03:28.852Z,3.20
2019-02-07T15:05:58.960Z,4.00
2019-02-07T15:08:29.168Z,2.70
2019-02-07T15:10:59.082Z,5.93
2019-02-07T15:13:29.098Z,14.30
2019-02-07T15:15:59.205Z,2.13
2019-02-07T15:18:29.116Z,1.53
2019-02-07T15:20:59.034Z,2.30
2019-02-07T15:23:29.139Z,2.00
2019-02-07T15:25:59.203Z,1.80
2019-02-07T15:28:29.360Z,2.90
2019-02-07T15:30:59.372Z,2.00
2019-02-07T15:33:29.482Z,1.97
2019-02-07T15:35:59.689Z,1.67
2019-02-07T15:38:29.897Z,1.90
2019-02-07T15:41:00.010Z,1.83
2019-02-07T15:43:30.806Z,2.07
2019-02-07T15:46:01.506Z,1.97
2019-02-07T15:48:31.419Z,2.33
2019-02-07T15:51:01.336Z,1.90
2019-02-07T15:53:31.710Z,1.80
2019-02-07T15:56:01.651Z,1.90
2019-02-07T15:58:33.018Z,2.27
2019-02-07T16:01:10.655Z,2.23
2019-02-07T16:03:41.985Z,2.90
2019-02-07T16:06:12.019Z,3.03
2019-02-07T16:08:42.986Z,2.70
2019-02-07T16:11:12.927Z,2.77
2019-02-07T16:13:43.553Z,2.50
2019-02-07T16:16:13.640Z,2.50
2019-02-07T16:18:43.553Z,2.70
2019-02-07T16:21:13.467Z,2.30
2019-02-07T16:23:43.577Z,2.40
2019-02-07T16:26:14.080Z,3.40
2019-02-07T16:28:44.194Z,2.77
2019-02-07T16:31:14.705Z,2.63
2019-02-07T16:33:45.590Z,2.63
2019-02-07T16:36:16.489Z,2.80
2019-02-07T16:38:46.694Z,2.77
2019-02-07T16:41:16.999Z,2.50
2019-02-07T16:43:47.207Z,2.90
2019-02-07T16:46:18.007Z,2.63
2019-02-07T16:48:48.609Z,2.50
2019-02-07T16:51:18.914Z,2.93
2019-02-07T16:53:49.222Z,2.83
2019-02-07T16:56:19.136Z,2.90
2019-02-07T16:58:49.048Z,2.60
2019-02-07T17:01:18.961Z,2.90
2019-02-07T17:03:49.561Z,2.70
2019-02-07T17:06:19.868Z,2.80
2019-02-07T17:08:49.782Z,3.10
2019-02-07T17:11:19.991Z,3.47
2019-02-07T17:13:49.902Z,2.90
2019-02-07T17:16:20.700Z,3.70
2019-02-07T17:18:51.203Z,5.47
2019-02-07T17:21:22.201Z,7.70
2019-02-07T17:23:52.212Z,13.97
2019-02-07T17:26:22.123Z,9.93
2019-02-07T17:28:52.041Z,17.97
2019-02-07T17:31:22.051Z,14.87
2019-02-07T17:33:52.159Z,11.93
2019-02-07T17:36:22.565Z,6.40
2019-02-07T17:38:52.478Z,8.93
2019-02-07T17:41:22.395Z,5.80
2019-02-07T17:43:52.959Z,4.87
2019-02-07T17:46:22.906Z,5.60
2019-02-07T17:48:53.015Z,4.70
2019-02-07T17:51:23.595Z,4.17
2019-02-07T17:53:53.757Z,3.97
2019-02-07T17:56:23.739Z,3.50
2019-02-07T17:58:53.653Z,4.77
2019-02-07T18:01:23.566Z,3.93
2019-02-07T18:03:54.067Z,4.27
2019-02-07T18:06:23.983Z,6.50
2019-02-07T18:08:53.785Z,5.47
2019-02-07T18:11:23.713Z,6.03
2019-02-07T18:13:53.926Z,6.23
2019-02-07T18:16:24.027Z,5.60
2019-02-07T18:18:54.629Z,4.47
2019-02-07T18:21:34.015Z,3.87
2019-02-07T18:23:56.228Z,3.07
2019-02-07T18:26:26.235Z,3.50
2019-02-07T18:28:56.643Z,7.17
2019-02-07T18:31:26.856Z,8.77
2019-02-07T18:33:57.060Z,8.27
2019-02-07T18:36:27.174Z,8.57
2019-02-07T18:38:57.279Z,7.90
2019-02-07T18:41:27.194Z,8.33
2019-02-07T18:43:57.206Z,12.83
2019-02-07T18:46:28.252Z,14.00
2019-02-07T18:48:58.412Z,10.90
2019-02-07T18:51:29.033Z,9.30
2019-02-07T18:53:59.319Z,10.80
2019-02-07T18:56:29.233Z,13.53
2019-02-07T18:58:59.340Z,10.37
2019-02-07T19:01:29.552Z,8.50
2019-02-07T19:03:59.460Z,8.40
2019-02-07T19:06:29.394Z,9.33
2019-02-07T19:08:59.505Z,8.87
2019-02-07T19:11:29.891Z,8.20
2019-02-07T19:13:59.805Z,7.17
2019-02-07T19:16:30.110Z,7.67
2019-02-07T19:19:00.124Z,9.40
2019-02-07T19:21:30.035Z,9.90
2019-02-07T19:24:00.573Z,9.70
2019-02-07T19:26:30.549Z,7.37
2019-02-07T19:29:00.758Z,7.87
2019-02-07T19:31:30.772Z,11.20
2019-02-07T19:34:00.682Z,9.97
2019-02-07T19:36:30.793Z,10.43
2019-02-07T19:39:00.708Z,10.27
2019-02-07T19:41:30.623Z,10.03
2019-02-07T19:44:00.532Z,9.97
2019-02-07T19:46:30.450Z,8.93
2019-02-07T19:49:00.362Z,10.90
2019-02-07T19:51:30.278Z,10.00
2019-02-07T19:54:00.383Z,9.53
2019-02-07T19:56:30.298Z,7.80
2019-02-07T19:59:00.210Z,6.50
2019-02-07T20:01:30.124Z,5.60
2019-02-07T20:04:00.135Z,5.67
2019-02-07T20:06:30.050Z,4.97
2019-02-07T20:09:00.257Z,7.60
2019-02-07T20:11:30.174Z,7.40
2019-02-07T20:14:00.183Z,6.83
2019-02-07T20:16:30.096Z,6.13
2019-02-07T20:19:00.011Z,6.83
2019-02-07T20:21:30.217Z,7.63
2019-02-07T20:24:00.283Z,7.60
2019-02-07T20:26:30.475Z,7.60
2019-02-07T20:29:00.744Z,7.10
2019-02-07T20:31:31.052Z,7.10
2019-02-07T20:34:00.978Z,6.97
2019-02-07T20:36:30.877Z,11.33
2019-02-07T20:39:00.893Z,12.43
2019-02-07T20:41:30.803Z,14.80
2019-02-07T20:44:00.717Z,17.70
2019-02-07T20:46:31.191Z,14.57
2019-02-07T20:49:01.136Z,13.53
2019-02-07T20:51:31.048Z,11.57
2019-02-07T20:54:00.961Z,13.43
2019-02-07T20:56:30.971Z,13.87
2019-02-07T20:59:01.186Z,10.00
2019-02-07T21:01:31.097Z,7.63
2019-02-07T21:04:02.090Z,8.80
2019-02-07T21:06:32.391Z,8.53
2019-02-07T21:09:02.310Z,10.10
2019-02-07T21:11:32.222Z,10.33
2019-02-07T21:14:02.187Z,9.00
2019-02-07T21:16:32.442Z,10.23
2019-02-07T21:19:02.356Z,6.53
2019-02-07T21:21:32.760Z,7.03
2019-02-07T21:24:02.781Z,6.30
2019-02-07T21:26:32.685Z,6.93
2019-02-07T21:29:03.035Z,5.80
2019-02-07T21:31:33.005Z,6.90
2019-02-07T21:34:03.498Z,7.13
2019-02-07T21:36:33.424Z,13.20
2019-02-07T21:39:03.337Z,10.90
2019-02-07T21:41:33.247Z,11.47
2019-02-07T21:44:03.456Z,10.57
2019-02-07T21:46:33.859Z,9.43
2019-02-07T21:49:04.365Z,10.53
2019-02-07T21:51:34.951Z,11.67
2019-02-07T21:54:05.943Z,9.37
2019-02-07T21:56:36.936Z,8.57
2019-02-07T21:59:07.360Z,9.73
2019-02-07T22:01:37.271Z,13.63
2019-02-07T22:04:07.581Z,15.80
2019-02-07T22:06:37.494Z,15.77
2019-02-07T22:09:11.933Z,17.93
2019-02-07T22:11:41.841Z,18.77
2019-02-07T22:14:11.756Z,18.33
2019-02-07T22:16:42.359Z,19.53
2019-02-07T22:19:13.391Z,25.33
2019-02-07T22:21:43.681Z,22.00
2019-02-07T22:24:14.759Z,22.10
2019-02-07T22:26:45.651Z,23.83
2019-02-07T22:29:16.152Z,23.77
2019-02-07T22:31:46.903Z,22.73
2019-02-07T22:34:17.579Z,21.23
2019-02-07T22:36:48.154Z,23.80
2019-02-07T22:39:18.068Z,24.80
2019-02-07T22:41:48.372Z,27.00
2019-02-07T22:44:18.580Z,27.23
2019-02-07T22:46:48.493Z,28.43
2019-02-07T22:49:18.407Z,26.63
2019-02-07T22:51:49.560Z,28.07
2019-02-07T22:54:20.685Z,25.60
2019-02-07T22:56:51.194Z,24.60
2019-02-07T22:59:21.894Z,23.90
2019-02-07T23:01:53.974Z,24.53
2019-02-07T23:04:23.882Z,25.77
2019-02-07T23:06:54.387Z,27.03
2019-02-07T23:09:25.383Z,28.60
2019-02-07T23:11:56.279Z,33.20
2019-02-07T23:14:26.487Z,38.87
2019-02-07T23:16:56.497Z,45.83
2019-02-07T23:19:26.814Z,46.37
2019-02-07T23:21:57.740Z,45.97
2019-02-07T23:24:28.682Z,43.53
2019-02-07T23:26:58.610Z,41.43
2019-02-07T23:29:28.818Z,40.23
2019-02-07T23:31:58.730Z,39.67
2019-02-07T23:34:28.642Z,38.07
2019-02-07T23:36:58.557Z,35.30
2019-02-07T23:39:29.059Z,34.93
2019-02-07T23:41:58.853Z,33.80
2019-02-07T23:44:28.787Z,34.67
2019-02-07T23:46:58.990Z,35.70
2019-02-07T23:49:29.111Z,35.13
2019-02-07T23:51:58.917Z,33.37
2019-02-07T23:54:29.720Z,32.43
2019-02-07T23:56:59.669Z,30.00
2019-02-07T23:59:29.939Z,28.33
